createdAt,value
2023-03-21T00:01:47.536Z,8.14
2023-03-21T00:04:17.137Z,8.15
2023-03-21T00:06:46.749Z,8.12
2023-03-21T00:09:16.071Z,8.12
2023-03-21T00:11:46.448Z,8.11
2023-03-21T00:14:18.175Z,8.09
2023-03-21T00:16:52.443Z,8.10
2023-03-21T00:19:23.938Z,8.14
2023-03-21T00:22:07.104Z,8.17
2023-03-21T00:24:26.954Z,8.21
2023-03-21T00:27:21.968Z,8.22
2023-03-21T00:29:31.286Z,8.24
2023-03-21T00:32:00.744Z,8.15
2023-03-21T00:34:42.738Z,8.15
2023-03-21T00:37:01.809Z,8.13
2023-03-21T00:39:32.205Z,8.10
2023-03-21T00:42:01.793Z,8.10
2023-03-21T00:44:33.042Z,8.07
2023-03-21T00:47:07.581Z,8.07
2023-03-21T00:49:37.702Z,8.04
2023-03-21T00:52:27.333Z,8.06
2023-03-21T00:54:42.584Z,8.08
2023-03-21T00:57:11.838Z,8.04
2023-03-21T00:59:41.053Z,8.04
2023-03-21T01:02:13.500Z,8.07
2023-03-21T01:04:43.127Z,8.05
2023-03-21T01:07:12.377Z,8.06
2023-03-21T01:09:41.760Z,8.09
2023-03-21T01:12:11.094Z,8.09
2023-03-21T01:14:40.484Z,8.07
2023-03-21T01:17:10.098Z,8.07
2023-03-21T01:19:51.242Z,8.07
2023-03-21T01:22:10.618Z,8.06
2023-03-21T01:24:50.217Z,8.06
2023-03-21T01:27:11.175Z,8.05
2023-03-21T01:29:40.693Z,8.02
2023-03-21T01:32:09.929Z,8.02
2023-03-21T01:34:39.494Z,8.04
2023-03-21T01:37:08.908Z,8.02
2023-03-21T01:39:40.029Z,8.08
2023-03-21T01:42:12.423Z,8.06
2023-03-21T01:45:00.476Z,8.05
2023-03-21T01:47:31.454Z,8.03
2023-03-21T01:50:20.614Z,8.04
2023-03-21T01:52:51.946Z,8.06
2023-03-21T01:55:23.111Z,8.03
2023-03-21T01:58:09.401Z,8.00
2023-03-21T02:00:55.132Z,8.01
2023-03-21T02:03:35.650Z,8.00
2023-03-21T02:06:10.625Z,8.00
2023-03-21T02:08:41.481Z,7.96
2023-03-21T02:11:12.822Z,7.99
2023-03-21T02:13:43.865Z,7.97
2023-03-21T02:16:36.712Z,7.93
2023-03-21T02:19:20.128Z,7.92
2023-03-21T02:21:54.408Z,7.92
2023-03-21T02:24:28.296Z,7.86
2023-03-21T02:27:19.562Z,7.91
2023-03-21T02:30:17.425Z,7.89
2023-03-21T02:33:22.043Z,7.85
2023-03-21T02:36:14.900Z,7.85
2023-03-21T02:38:51.166Z,7.80
2023-03-21T02:41:40.115Z,7.82
2023-03-21T02:44:15.607Z,7.82
2023-03-21T02:47:15.328Z,7.87
2023-03-21T02:50:15.819Z,7.88
2023-03-21T02:52:47.459Z,7.84
2023-03-21T02:55:22.845Z,7.81
2023-03-21T02:57:56.415Z,7.80
2023-03-21T03:00:29.865Z,7.80
2023-03-21T03:03:09.632Z,7.83
2023-03-21T03:05:34.904Z,7.79
2023-03-21T03:08:38.379Z,7.82
2023-03-21T03:11:19.662Z,7.79
2023-03-21T03:13:54.950Z,7.85
2023-03-21T03:16:42.622Z,7.79
2023-03-21T03:19:15.072Z,7.81
2023-03-21T03:21:59.541Z,7.86
2023-03-21T03:24:41.435Z,7.82
2023-03-21T03:27:19.789Z,7.80
2023-03-21T03:29:50.400Z,7.82
2023-03-21T03:32:25.585Z,7.82
2023-03-21T03:34:57.114Z,7.80
2023-03-21T03:37:34.190Z,7.83
2023-03-21T03:40:21.728Z,7.82
2023-03-21T03:42:54.787Z,7.86
2023-03-21T03:45:28.958Z,7.83
2023-03-21T03:47:59.297Z,7.88
2023-03-21T03:50:39.256Z,7.84
2023-03-21T03:53:19.491Z,7.82
2023-03-21T03:55:51.302Z,7.82
2023-03-21T03:58:27.397Z,7.87
2023-03-21T04:00:59.378Z,7.85
2023-03-21T04:03:32.422Z,7.88
2023-03-21T04:06:00.250Z,7.92
2023-03-21T04:08:30.174Z,7.89
2023-03-21T04:10:59.683Z,7.91
2023-03-21T04:13:29.556Z,7.92
2023-03-21T04:16:11.857Z,7.92
2023-03-21T04:18:42.049Z,7.91
2023-03-21T04:21:13.018Z,7.96
2023-03-21T04:23:43.177Z,7.92
2023-03-21T04:26:12.941Z,7.96
2023-03-21T04:28:46.823Z,7.92
2023-03-21T04:31:27.307Z,7.93
2023-03-21T04:34:08.083Z,7.97
2023-03-21T04:36:47.945Z,7.92
2023-03-21T04:39:18.521Z,7.98
2023-03-21T04:41:50.050Z,7.98
2023-03-21T04:44:20.950Z,7.99
2023-03-21T04:46:50.840Z,7.98
2023-03-21T04:49:21.311Z,7.99
2023-03-21T04:51:51.140Z,7.98
2023-03-21T04:54:21.183Z,7.97
2023-03-21T04:56:52.193Z,7.99
2023-03-21T04:59:21.850Z,7.95
2023-03-21T05:01:52.646Z,7.98
2023-03-21T05:04:22.516Z,7.95
2023-03-21T05:06:51.844Z,7.96
2023-03-21T05:09:22.310Z,7.97
2023-03-21T05:11:52.294Z,7.98
2023-03-21T05:14:25.320Z,7.98
2023-03-21T05:16:56.534Z,7.96
2023-03-21T05:19:32.908Z,7.89
2023-03-21T05:22:05.495Z,7.90
2023-03-21T05:24:34.793Z,7.93
2023-03-21T05:27:04.107Z,7.92
2023-03-21T05:29:35.111Z,7.95
2023-03-21T05:32:06.453Z,7.95
2023-03-21T05:34:35.698Z,7.91
2023-03-21T05:37:04.969Z,7.88
2023-03-21T05:39:38.676Z,7.92
2023-03-21T05:42:12.582Z,7.97
2023-03-21T05:44:42.654Z,7.99
2023-03-21T05:47:13.590Z,8.03
2023-03-21T05:49:45.684Z,8.04
2023-03-21T05:52:15.369Z,8.01
2023-03-21T05:54:46.832Z,8.03
2023-03-21T05:57:18.042Z,8.06
2023-03-21T05:59:52.203Z,8.09
2023-03-21T06:02:22.057Z,8.15
2023-03-21T06:04:51.870Z,8.20
2023-03-21T06:07:23.275Z,8.25
2023-03-21T06:09:52.993Z,8.31
2023-03-21T06:12:23.160Z,8.29
2023-03-21T06:14:56.986Z,8.31
2023-03-21T06:17:28.155Z,8.34
2023-03-21T06:20:01.872Z,8.36
2023-03-21T06:22:34.021Z,8.39
2023-03-21T06:25:04.157Z,8.37
2023-03-21T06:27:33.501Z,8.39
2023-03-21T06:30:02.970Z,8.45
2023-03-21T06:32:34.291Z,8.50
2023-03-21T06:35:05.651Z,8.49
2023-03-21T06:37:35.292Z,8.47
2023-03-21T06:40:06.142Z,8.49
2023-03-21T06:42:36.066Z,8.50
2023-03-21T06:45:07.751Z,8.48
2023-03-21T06:47:36.974Z,8.42
2023-03-21T06:50:09.372Z,8.35
2023-03-21T06:52:40.337Z,8.31
2023-03-21T06:55:10.389Z,8.23
2023-03-21T06:57:39.615Z,8.21
2023-03-21T07:00:11.187Z,8.15
2023-03-21T07:02:42.398Z,8.09
2023-03-21T07:05:13.605Z,8.03
2023-03-21T07:07:44.347Z,7.98
2023-03-21T07:10:13.670Z,7.87
2023-03-21T07:12:44.840Z,7.86
2023-03-21T07:15:15.836Z,7.82
2023-03-21T07:17:46.021Z,7.77
2023-03-21T07:20:15.255Z,7.79
2023-03-21T07:22:44.817Z,7.78
2023-03-21T07:25:14.323Z,7.79
2023-03-21T07:27:44.566Z,7.77
2023-03-21T07:30:14.352Z,7.77
2023-03-21T07:32:45.301Z,7.76
2023-03-21T07:35:17.067Z,7.73
2023-03-21T07:37:46.579Z,7.76
2023-03-21T07:40:17.981Z,7.83
2023-03-21T07:42:50.908Z,7.86
2023-03-21T07:45:23.708Z,7.93
2023-03-21T07:47:53.397Z,7.90
2023-03-21T07:50:22.985Z,7.97
2023-03-21T07:52:52.543Z,8.03
2023-03-21T07:55:22.293Z,8.07
2023-03-21T07:57:51.860Z,8.14
2023-03-21T08:00:25.131Z,8.13
2023-03-21T08:02:58.676Z,8.15
2023-03-21T08:05:30.099Z,8.18
2023-03-21T08:07:59.296Z,8.22
2023-03-21T08:10:29.574Z,8.34
2023-03-21T08:12:59.186Z,8.31
2023-03-21T08:15:28.732Z,8.39
2023-03-21T08:18:00.317Z,8.30
2023-03-21T08:20:29.537Z,8.43
2023-03-21T08:22:58.792Z,8.48
2023-03-21T08:25:28.010Z,8.61
2023-03-21T08:27:57.903Z,8.67
2023-03-21T08:30:29.063Z,8.62
2023-03-21T08:33:01.556Z,8.63
2023-03-21T08:35:31.710Z,8.60
2023-03-21T08:38:02.767Z,8.63
2023-03-21T08:40:32.113Z,8.67
2023-03-21T08:43:01.905Z,8.75
2023-03-21T08:45:31.447Z,8.80
2023-03-21T08:48:02.448Z,8.84
2023-03-21T08:50:32.315Z,8.90
2023-03-21T08:53:01.552Z,8.92
2023-03-21T08:55:32.469Z,8.96
2023-03-21T08:58:03.972Z,8.92
2023-03-21T09:00:33.348Z,8.89
2023-03-21T09:03:04.226Z,8.91
2023-03-21T09:05:33.678Z,8.96
2023-03-21T09:08:05.541Z,9.00
2023-03-21T09:10:34.968Z,9.00
2023-03-21T09:13:04.332Z,9.10
2023-03-21T09:15:35.452Z,9.12
2023-03-21T09:18:06.477Z,9.15
2023-03-21T09:20:37.329Z,9.25
2023-03-21T09:23:06.647Z,9.36
2023-03-21T09:25:36.864Z,9.50
2023-03-21T09:28:07.410Z,9.66
2023-03-21T09:30:37.939Z,9.71
2023-03-21T09:33:09.010Z,9.89
2023-03-21T09:35:39.232Z,9.90
2023-03-21T09:38:09.134Z,9.93
2023-03-21T09:40:56.551Z,10.04
2023-03-21T09:43:41.414Z,10.13
2023-03-21T09:46:16.513Z,10.32
2023-03-21T09:48:57.000Z,10.67
2023-03-21T09:51:23.680Z,10.74
2023-03-21T09:53:57.039Z,11.31
2023-03-21T09:56:26.526Z,11.13
2023-03-21T09:58:59.787Z,10.93
2023-03-21T10:01:34.673Z,10.81
2023-03-21T10:04:06.733Z,10.92
2023-03-21T10:06:39.665Z,10.92
2023-03-21T10:09:24.980Z,10.93
2023-03-21T10:11:57.382Z,10.83
2023-03-21T10:14:36.335Z,10.99
2023-03-21T10:17:21.484Z,10.97
2023-03-21T10:19:54.596Z,11.09
2023-03-21T10:22:23.826Z,11.15
2023-03-21T10:24:53.192Z,11.19
2023-03-21T10:27:22.439Z,11.32
2023-03-21T10:29:53.386Z,11.34
2023-03-21T10:32:22.906Z,11.39
2023-03-21T10:37:26.888Z,11.58
2023-03-21T10:39:58.187Z,11.49
2023-03-21T10:42:31.430Z,11.70
2023-03-21T10:45:01.285Z,11.70
2023-03-21T10:47:35.160Z,11.66
2023-03-21T10:50:09.341Z,11.67
2023-03-21T10:52:41.223Z,11.85
2023-03-21T10:55:13.938Z,12.08
2023-03-21T10:57:43.235Z,12.09
2023-03-21T11:00:17.064Z,12.08
2023-03-21T11:02:49.583Z,12.04
2023-03-21T11:05:20.876Z,11.95
2023-03-21T11:07:59.711Z,11.83
2023-03-21T11:10:32.721Z,11.76
2023-03-21T11:13:11.106Z,11.76
2023-03-21T11:15:52.125Z,11.96
2023-03-21T11:18:24.117Z,12.10
2023-03-21T11:21:02.555Z,11.83
2023-03-21T11:23:34.230Z,11.83
2023-03-21T11:26:05.488Z,11.75
2023-03-21T11:28:42.246Z,11.74
2023-03-21T11:31:12.183Z,11.64
2023-03-21T11:33:45.384Z,11.68
2023-03-21T11:36:24.204Z,11.73
2023-03-21T11:39:13.912Z,11.88
2023-03-21T11:41:44.030Z,12.02
2023-03-21T11:44:31.145Z,12.11
2023-03-21T11:47:01.116Z,12.42
2023-03-21T11:49:30.942Z,12.68
2023-03-21T11:52:06.649Z,12.62
2023-03-21T11:54:39.147Z,12.49
2023-03-21T11:57:23.778Z,12.31
2023-03-21T12:00:01.952Z,12.29
2023-03-21T12:03:02.891Z,12.52
2023-03-21T12:05:44.452Z,12.68
2023-03-21T12:08:52.220Z,12.78
2023-03-21T12:11:42.457Z,12.99
2023-03-21T12:14:23.778Z,12.82
2023-03-21T12:17:13.231Z,12.91
2023-03-21T12:20:04.230Z,12.79
2023-03-21T12:22:39.620Z,12.73
2023-03-21T12:25:33.408Z,14.66
2023-03-21T12:28:08.703Z,15.68
2023-03-21T12:31:00.868Z,15.38
2023-03-21T12:33:45.176Z,14.78
2023-03-21T12:36:23.325Z,14.10
2023-03-21T12:39:19.932Z,13.96
2023-03-21T12:41:52.914Z,13.56
2023-03-21T12:44:23.607Z,13.49
2023-03-21T12:47:05.034Z,12.92
2023-03-21T12:49:40.390Z,13.06
2023-03-21T12:52:15.652Z,12.99
2023-03-21T12:54:59.966Z,12.78
2023-03-21T12:57:32.649Z,12.69
2023-03-21T13:00:12.434Z,12.74
2023-03-21T13:03:05.273Z,12.87
2023-03-21T13:05:53.193Z,13.13
2023-03-21T13:08:31.714Z,13.42
2023-03-21T13:11:02.384Z,14.02
2023-03-21T13:13:37.537Z,14.27
2023-03-21T13:16:10.010Z,13.56
2023-03-21T13:19:14.687Z,13.25
2023-03-21T13:21:50.014Z,13.12
2023-03-21T13:24:28.641Z,13.49
2023-03-21T13:27:04.270Z,13.49
2023-03-21T13:29:53.374Z,13.67
2023-03-21T13:32:40.064Z,14.13
2023-03-21T13:35:29.010Z,14.18
2023-03-21T13:38:09.218Z,14.05
2023-03-21T13:40:53.079Z,13.81
2023-03-21T13:43:36.852Z,13.91
2023-03-21T13:46:14.918Z,14.13
2023-03-21T13:49:01.012Z,14.04
2023-03-21T13:51:39.606Z,13.66
2023-03-21T13:54:17.978Z,13.86
2023-03-21T13:56:52.945Z,13.89
2023-03-21T13:59:40.835Z,13.82
2023-03-21T14:02:25.197Z,13.69
2023-03-21T14:05:05.444Z,13.44
2023-03-21T14:07:31.166Z,13.35
2023-03-21T14:10:09.901Z,13.16
2023-03-21T14:12:41.839Z,13.03
2023-03-21T14:15:22.856Z,12.99
2023-03-21T14:18:06.430Z,12.89
2023-03-21T14:20:36.517Z,12.94
2023-03-21T14:23:11.899Z,12.78
2023-03-21T14:25:47.599Z,12.78
2023-03-21T14:28:19.785Z,12.63
2023-03-21T14:30:55.188Z,12.56
2023-03-21T14:33:33.234Z,12.53
2023-03-21T14:36:06.473Z,12.43
2023-03-21T14:38:38.032Z,12.40
2023-03-21T14:41:09.498Z,12.44
2023-03-21T14:43:39.376Z,12.47
2023-03-21T14:46:10.337Z,12.60
2023-03-21T14:48:40.143Z,12.81
2023-03-21T14:51:12.275Z,12.85
2023-03-21T14:53:43.062Z,12.56
2023-03-21T14:56:21.296Z,12.56
2023-03-21T14:58:51.263Z,12.60
2023-03-21T15:01:29.724Z,12.60
2023-03-21T15:04:00.767Z,12.57
2023-03-21T15:06:30.001Z,12.50
2023-03-21T15:09:02.324Z,12.43
2023-03-21T15:11:37.475Z,12.49
2023-03-21T15:14:09.038Z,12.46
2023-03-21T15:16:39.192Z,12.41
2023-03-21T15:19:09.614Z,12.37
2023-03-21T15:21:44.246Z,12.34
2023-03-21T15:24:25.757Z,12.27
2023-03-21T15:27:01.341Z,12.19
2023-03-21T15:29:31.136Z,11.99
2023-03-21T15:32:01.434Z,12.03
2023-03-21T15:34:31.736Z,11.91
2023-03-21T15:37:06.285Z,11.84
2023-03-21T15:39:36.493Z,11.83
2023-03-21T15:42:08.990Z,11.80
2023-03-21T15:44:38.283Z,11.82
2023-03-21T15:47:09.594Z,11.82
2023-03-21T15:49:42.702Z,11.91
2023-03-21T15:52:16.818Z,11.87
2023-03-21T15:54:56.700Z,11.77
2023-03-21T15:57:32.576Z,11.54
2023-03-21T16:00:18.475Z,11.05
2023-03-21T16:02:47.176Z,10.63
2023-03-21T16:05:31.471Z,10.43
2023-03-21T16:08:20.771Z,10.38
2023-03-21T16:10:50.182Z,10.37
2023-03-21T16:13:19.566Z,10.36
2023-03-21T16:15:48.836Z,10.38
2023-03-21T16:18:18.068Z,10.43
2023-03-21T16:20:49.086Z,10.49
2023-03-21T16:23:18.351Z,10.53
2023-03-21T16:25:47.631Z,10.65
2023-03-21T16:28:18.487Z,10.72
2023-03-21T16:30:47.766Z,10.78
2023-03-21T16:33:17.338Z,10.74
2023-03-21T16:35:46.897Z,10.72
2023-03-21T16:38:16.282Z,10.74
2023-03-21T16:40:45.943Z,10.77
2023-03-21T16:43:15.611Z,10.92
2023-03-21T16:45:45.463Z,10.97
2023-03-21T16:48:16.974Z,10.86
2023-03-21T16:50:49.671Z,10.80
2023-03-21T16:53:18.600Z,10.77
2023-03-21T16:55:48.102Z,10.73
2023-03-21T16:58:17.419Z,10.71
2023-03-21T17:00:47.296Z,10.63
2023-03-21T17:03:21.589Z,10.56
2023-03-21T17:05:51.089Z,10.45
2023-03-21T17:08:21.845Z,10.50
2023-03-21T17:10:51.332Z,10.49
2023-03-21T17:13:20.630Z,10.49
2023-03-21T17:15:49.996Z,10.57
2023-03-21T17:18:19.209Z,10.53
2023-03-21T17:20:48.478Z,10.52
2023-03-21T17:23:17.686Z,10.56
2023-03-21T17:25:47.263Z,10.55
2023-03-21T17:28:16.527Z,10.49
2023-03-21T17:30:46.109Z,10.57
2023-03-21T17:33:15.720Z,10.49
2023-03-21T17:35:45.383Z,10.52
2023-03-21T17:38:17.135Z,10.52
2023-03-21T17:40:46.554Z,10.48
2023-03-21T17:43:21.016Z,10.41
2023-03-21T17:45:50.436Z,10.39
2023-03-21T17:48:21.917Z,10.40
2023-03-21T17:50:51.230Z,10.45
2023-03-21T17:53:22.378Z,10.36
2023-03-21T17:55:51.638Z,10.34
2023-03-21T17:58:21.355Z,10.25
2023-03-21T18:00:50.845Z,10.28
2023-03-21T18:03:20.352Z,10.24
2023-03-21T18:05:49.583Z,10.15
2023-03-21T18:08:19.258Z,10.15
2023-03-21T18:10:49.021Z,10.19
2023-03-21T18:13:18.920Z,10.11
2023-03-21T18:15:49.887Z,10.11
2023-03-21T18:18:19.457Z,10.10
2023-03-21T18:20:52.638Z,10.12
2023-03-21T18:23:21.160Z,10.18
2023-03-21T18:25:53.003Z,10.16
2023-03-21T18:28:22.738Z,10.07
2023-03-21T18:31:08.238Z,10.01
2023-03-21T18:33:24.740Z,10.00
2023-03-21T18:35:59.013Z,9.94
2023-03-21T18:38:25.598Z,9.95
2023-03-21T18:40:55.220Z,9.98
2023-03-21T18:45:56.579Z,9.85
2023-03-21T18:48:26.269Z,9.71
2023-03-21T18:50:56.038Z,9.51
2023-03-21T18:53:25.573Z,9.36
2023-03-21T18:55:55.585Z,9.29
2023-03-21T18:58:25.496Z,9.19
2023-03-21T19:00:55.303Z,9.16
2023-03-21T19:03:35.725Z,9.19
2023-03-21T19:06:00.511Z,9.19
2023-03-21T19:08:30.652Z,9.26
2023-03-21T19:11:05.562Z,9.25
2023-03-21T19:13:31.248Z,9.27
2023-03-21T19:16:02.749Z,9.26
2023-03-21T19:18:53.527Z,9.22
2023-03-21T19:21:06.334Z,9.19
2023-03-21T19:24:11.648Z,9.22
2023-03-21T19:26:07.873Z,9.27
2023-03-21T19:28:37.434Z,9.26
2023-03-21T19:31:08.037Z,9.28
2023-03-21T19:33:37.880Z,9.31
2023-03-21T19:36:17.985Z,9.39
2023-03-21T19:38:39.152Z,9.38
2023-03-21T19:41:08.448Z,9.32
2023-03-21T19:43:40.131Z,9.30
2023-03-21T19:46:11.324Z,9.29
2023-03-21T19:48:43.523Z,9.36
2023-03-21T19:51:27.479Z,9.35
2023-03-21T19:53:44.391Z,9.26
2023-03-21T19:56:21.652Z,9.22
2023-03-21T19:58:47.245Z,9.14
2023-03-21T20:01:16.824Z,9.15
2023-03-21T20:03:46.563Z,9.03
2023-03-21T20:06:16.722Z,8.97
2023-03-21T20:11:17.989Z,8.90
2023-03-21T20:13:49.518Z,8.82
2023-03-21T20:16:20.429Z,8.79
2023-03-21T20:18:50.299Z,8.87
2023-03-21T20:21:25.345Z,8.66
2023-03-21T20:23:51.148Z,8.75
2023-03-21T20:26:21.389Z,8.68
2023-03-21T20:29:00.272Z,8.71
2023-03-21T20:31:24.202Z,8.68
2023-03-21T20:33:53.675Z,8.85
2023-03-21T20:36:38.821Z,8.86
2023-03-21T20:38:55.399Z,9.03
2023-03-21T20:41:24.929Z,9.00
2023-03-21T20:46:25.270Z,8.92
2023-03-21T20:48:54.934Z,8.74
2023-03-21T20:53:56.706Z,8.60
2023-03-21T20:56:25.946Z,8.60
2023-03-21T20:59:08.557Z,8.51
2023-03-21T21:01:26.801Z,8.60
2023-03-21T21:03:57.525Z,8.65
2023-03-21T21:06:28.632Z,8.70
2023-03-21T21:08:59.721Z,8.64
2023-03-21T21:14:00.100Z,8.71
2023-03-21T21:16:29.400Z,8.66
2023-03-21T21:18:59.405Z,8.52
2023-03-21T21:21:28.881Z,8.49
2023-03-21T21:23:58.502Z,8.39
2023-03-21T21:26:28.203Z,8.44
2023-03-21T21:28:59.037Z,8.46
2023-03-21T21:31:33.069Z,8.56
2023-03-21T21:34:04.010Z,8.59
2023-03-21T21:36:33.553Z,8.60
2023-03-21T21:39:02.754Z,8.51
2023-03-21T21:41:32.279Z,8.36
2023-03-21T21:44:01.620Z,8.42
2023-03-21T21:46:31.683Z,8.43
2023-03-21T21:49:02.030Z,8.51
2023-03-21T21:51:33.251Z,8.58
2023-03-21T21:54:06.438Z,8.58
2023-03-21T21:56:38.716Z,8.53
2023-03-21T21:59:11.273Z,8.46
2023-03-21T22:01:43.512Z,8.41
2023-03-21T22:04:14.896Z,8.36
2023-03-21T22:06:48.084Z,8.30
2023-03-21T22:09:24.733Z,8.27
2023-03-21T22:11:57.209Z,8.22
2023-03-21T22:14:33.267Z,8.09
2023-03-21T22:17:03.777Z,8.08
2023-03-21T22:19:40.200Z,7.98
2023-03-21T22:22:12.774Z,7.91
2023-03-21T22:24:42.484Z,7.88
2023-03-21T22:27:11.836Z,7.88
2023-03-21T22:29:41.227Z,7.80
2023-03-21T22:32:10.959Z,7.82
2023-03-21T22:34:40.266Z,7.88
2023-03-21T22:37:09.602Z,7.92
2023-03-21T22:39:39.104Z,8.00
2023-03-21T22:42:08.523Z,7.92
2023-03-21T22:44:37.793Z,7.95
2023-03-21T22:47:09.292Z,7.96
2023-03-21T22:49:39.342Z,7.88
2023-03-21T22:52:09.296Z,7.88
2023-03-21T22:54:38.848Z,7.88
2023-03-21T22:57:08.959Z,7.92
2023-03-21T22:59:38.532Z,7.95
2023-03-21T23:02:09.742Z,7.90
2023-03-21T23:04:39.550Z,7.89
2023-03-21T23:07:10.024Z,8.06
2023-03-21T23:09:39.693Z,8.07
2023-03-21T23:12:09.023Z,8.05
2023-03-21T23:14:38.548Z,8.14
2023-03-21T23:17:09.459Z,8.31
2023-03-21T23:19:41.097Z,8.20
2023-03-21T23:22:11.236Z,8.11
2023-03-21T23:24:41.053Z,8.01
2023-03-21T23:27:10.669Z,7.98
2023-03-21T23:29:40.161Z,7.97
2023-03-21T23:32:09.387Z,7.92
2023-03-21T23:34:38.631Z,7.89
2023-03-21T23:37:08.195Z,8.05
2023-03-21T23:39:37.984Z,8.17
2023-03-21T23:42:07.499Z,8.10
2023-03-21T23:44:37.061Z,8.30
2023-03-21T23:47:06.365Z,8.34
2023-03-21T23:49:37.234Z,8.45
2023-03-21T23:52:06.898Z,8.37
2023-03-21T23:54:36.496Z,8.40
2023-03-21T23:57:05.764Z,8.40
2023-03-21T23:59:35.272Z,8.36
